sensor_id;sensor_type;location;lat;lon;timestamp;temperature;humidity
47600;DHT22;33323;52.124;6.018;2023-07-31T00:01:24;15.60;99.90
47600;DHT22;33323;52.124;6.018;2023-07-31T00:03:51;15.60;99.90
47600;DHT22;33323;52.124;6.018;2023-07-31T00:06:18;15.60;99.90
47600;DHT22;33323;52.124;6.018;2023-07-31T00:08:45;15.60;99.90
47600;DHT22;33323;52.124;6.018;2023-07-31T00:11:12;15.60;99.90
47600;DHT22;33323;52.124;6.018;2023-07-31T00:13:39;15.60;99.90
47600;DHT22;33323;52.124;6.018;2023-07-31T00:16:06;15.60;99.90
47600;DHT22;33323;52.124;6.018;2023-07-31T00:18:33;15.70;99.90
47600;DHT22;33323;52.124;6.018;2023-07-31T00:21:00;15.70;99.90
47600;DHT22;33323;52.124;6.018;2023-07-31T00:23:27;15.70;99.90
47600;DHT22;33323;52.124;6.018;2023-07-31T00:25:54;15.70;99.90
47600;DHT22;33323;52.124;6.018;2023-07-31T00:28:21;15.70;99.90
47600;DHT22;33323;52.124;6.018;2023-07-31T00:30:48;15.80;99.90
47600;DHT22;33323;52.124;6.018;2023-07-31T00:33:15;15.70;99.90
47600;DHT22;33323;52.124;6.018;2023-07-31T00:35:42;15.70;99.90
47600;DHT22;33323;52.124;6.018;2023-07-31T00:38:09;15.60;99.90
47600;DHT22;33323;52.124;6.018;2023-07-31T00:40:37;15.70;99.90
47600;DHT22;33323;52.124;6.018;2023-07-31T00:43:04;15.70;99.90
47600;DHT22;33323;52.124;6.018;2023-07-31T00:45:31;15.70;99.90
47600;DHT22;33323;52.124;6.018;2023-07-31T00:47:59;15.70;99.90
47600;DHT22;33323;52.124;6.018;2023-07-31T00:50:27;15.80;99.90
47600;DHT22;33323;52.124;6.018;2023-07-31T00:52:54;15.70;99.90
47600;DHT22;33323;52.124;6.018;2023-07-31T00:55:22;15.80;99.90
47600;DHT22;33323;52.124;6.018;2023-07-31T00:57:49;15.80;99.90
47600;DHT22;33323;52.124;6.018;2023-07-31T01:00:18;15.70;99.90
47600;DHT22;33323;52.124;6.018;2023-07-31T01:02:46;15.80;99.90
47600;DHT22;33323;52.124;6.018;2023-07-31T01:05:13;15.80;99.90
47600;DHT22;33323;52.124;6.018;2023-07-31T01:08:03;15.80;99.90
47600;DHT22;33323;52.124;6.018;2023-07-31T01:10:45;15.80;99.90
47600;DHT22;33323;52.124;6.018;2023-07-31T01:13:27;15.80;99.90
47600;DHT22;33323;52.124;6.018;2023-07-31T01:15:55;15.90;99.90
47600;DHT22;33323;52.124;6.018;2023-07-31T01:18:22;15.90;99.90
47600;DHT22;33323;52.124;6.018;2023-07-31T01:20:57;15.90;99.90
47600;DHT22;33323;52.124;6.018;2023-07-31T01:26:36;16.10;99.90
47600;DHT22;33323;52.124;6.018;2023-07-31T01:32:01;16.20;99.90
47600;DHT22;33323;52.124;6.018;2023-07-31T01:34:29;16.20;99.90
47600;DHT22;33323;52.124;6.018;2023-07-31T01:36:58;16.20;99.90
47600;DHT22;33323;52.124;6.018;2023-07-31T01:39:25;16.20;99.90
47600;DHT22;33323;52.124;6.018;2023-07-31T01:41:52;16.30;99.90
47600;DHT22;33323;52.124;6.018;2023-07-31T01:44:20;16.30;99.90
47600;DHT22;33323;52.124;6.018;2023-07-31T01:46:47;16.40;99.90
47600;DHT22;33323;52.124;6.018;2023-07-31T01:49:14;16.40;99.90
47600;DHT22;33323;52.124;6.018;2023-07-31T01:51:41;16.40;99.90
47600;DHT22;33323;52.124;6.018;2023-07-31T01:54:08;16.40;99.90
47600;DHT22;33323;52.124;6.018;2023-07-31T01:56:35;16.50;99.90
47600;DHT22;33323;52.124;6.018;2023-07-31T01:59:04;16.50;99.90
47600;DHT22;33323;52.124;6.018;2023-07-31T02:01:31;16.50;99.90
47600;DHT22;33323;52.124;6.018;2023-07-31T02:03:58;16.50;99.90
47600;DHT22;33323;52.124;6.018;2023-07-31T02:06:25;16.50;99.90
47600;DHT22;33323;52.124;6.018;2023-07-31T02:08:52;16.50;99.90
47600;DHT22;33323;52.124;6.018;2023-07-31T02:11:19;16.50;99.90
47600;DHT22;33323;52.124;6.018;2023-07-31T02:13:49;16.50;99.90
47600;DHT22;33323;52.124;6.018;2023-07-31T02:16:16;16.50;99.90
47600;DHT22;33323;52.124;6.018;2023-07-31T02:18:43;16.50;99.90
47600;DHT22;33323;52.124;6.018;2023-07-31T02:21:10;16.50;99.90
47600;DHT22;33323;52.124;6.018;2023-07-31T02:23:37;16.50;99.90
47600;DHT22;33323;52.124;6.018;2023-07-31T02:26:05;16.50;99.90
47600;DHT22;33323;52.124;6.018;2023-07-31T02:28:32;16.50;99.90
47600;DHT22;33323;52.124;6.018;2023-07-31T02:30:59;16.40;99.90
47600;DHT22;33323;52.124;6.018;2023-07-31T02:33:26;16.40;99.90
47600;DHT22;33323;52.124;6.018;2023-07-31T02:35:54;16.40;99.90
47600;DHT22;33323;52.124;6.018;2023-07-31T02:38:21;16.40;99.90
47600;DHT22;33323;52.124;6.018;2023-07-31T02:40:48;16.40;99.90
47600;DHT22;33323;52.124;6.018;2023-07-31T02:43:16;16.40;99.90
47600;DHT22;33323;52.124;6.018;2023-07-31T02:45:43;16.40;99.90
47600;DHT22;33323;52.124;6.018;2023-07-31T02:48:10;16.40;99.90
47600;DHT22;33323;52.124;6.018;2023-07-31T02:50:37;16.40;99.90
47600;DHT22;33323;52.124;6.018;2023-07-31T02:53:04;16.40;99.90
47600;DHT22;33323;52.124;6.018;2023-07-31T02:55:31;16.40;99.90
47600;DHT22;33323;52.124;6.018;2023-07-31T02:57:58;16.40;99.90
47600;DHT22;33323;52.124;6.018;2023-07-31T03:00:26;16.40;99.90
47600;DHT22;33323;52.124;6.018;2023-07-31T03:02:53;16.40;99.90
47600;DHT22;33323;52.124;6.018;2023-07-31T03:05:20;16.40;99.90
47600;DHT22;33323;52.124;6.018;2023-07-31T03:07:47;16.40;99.90
47600;DHT22;33323;52.124;6.018;2023-07-31T03:10:14;16.40;99.90
47600;DHT22;33323;52.124;6.018;2023-07-31T03:12:41;16.40;99.90
47600;DHT22;33323;52.124;6.018;2023-07-31T03:15:09;16.40;99.90
47600;DHT22;33323;52.124;6.018;2023-07-31T03:17:36;16.40;99.90
47600;DHT22;33323;52.124;6.018;2023-07-31T03:20:04;16.40;99.90
47600;DHT22;33323;52.124;6.018;2023-07-31T03:22:31;16.40;99.90
47600;DHT22;33323;52.124;6.018;2023-07-31T03:24:58;16.40;99.90
47600;DHT22;33323;52.124;6.018;2023-07-31T03:27:25;16.40;99.90
47600;DHT22;33323;52.124;6.018;2023-07-31T03:29:52;16.40;99.90
47600;DHT22;33323;52.124;6.018;2023-07-31T03:32:20;16.40;99.90
47600;DHT22;33323;52.124;6.018;2023-07-31T03:34:47;16.40;99.90
47600;DHT22;33323;52.124;6.018;2023-07-31T03:37:14;16.40;99.90
47600;DHT22;33323;52.124;6.018;2023-07-31T03:39:41;16.40;99.90
47600;DHT22;33323;52.124;6.018;2023-07-31T03:42:08;16.40;99.90
47600;DHT22;33323;52.124;6.018;2023-07-31T03:44:35;16.40;99.90
47600;DHT22;33323;52.124;6.018;2023-07-31T03:47:04;16.30;99.90
47600;DHT22;33323;52.124;6.018;2023-07-31T03:49:32;16.30;99.90
47600;DHT22;33323;52.124;6.018;2023-07-31T03:51:59;16.30;99.90
47600;DHT22;33323;52.124;6.018;2023-07-31T03:54:26;16.30;99.90
47600;DHT22;33323;52.124;6.018;2023-07-31T03:56:53;16.30;99.90
47600;DHT22;33323;52.124;6.018;2023-07-31T03:59:20;16.30;99.90
47600;DHT22;33323;52.124;6.018;2023-07-31T04:01:47;16.30;99.90
47600;DHT22;33323;52.124;6.018;2023-07-31T04:04:14;16.30;99.90
47600;DHT22;33323;52.124;6.018;2023-07-31T04:06:41;16.20;99.90
47600;DHT22;33323;52.124;6.018;2023-07-31T04:09:08;16.20;99.90
47600;DHT22;33323;52.124;6.018;2023-07-31T04:11:35;16.30;99.90
47600;DHT22;33323;52.124;6.018;2023-07-31T04:14:02;16.20;99.90
47600;DHT22;33323;52.124;6.018;2023-07-31T04:16:29;16.30;99.90
47600;DHT22;33323;52.124;6.018;2023-07-31T04:18:56;16.20;99.90
47600;DHT22;33323;52.124;6.018;2023-07-31T04:21:23;16.20;99.90
47600;DHT22;33323;52.124;6.018;2023-07-31T04:23:50;16.20;99.90
47600;DHT22;33323;52.124;6.018;2023-07-31T04:26:17;16.20;99.90
47600;DHT22;33323;52.124;6.018;2023-07-31T04:28:44;16.20;99.90
47600;DHT22;33323;52.124;6.018;2023-07-31T04:31:11;16.20;99.90
47600;DHT22;33323;52.124;6.018;2023-07-31T04:33:38;16.20;99.90
47600;DHT22;33323;52.124;6.018;2023-07-31T04:36:06;16.20;99.90
47600;DHT22;33323;52.124;6.018;2023-07-31T04:38:33;16.20;99.90
47600;DHT22;33323;52.124;6.018;2023-07-31T04:41:00;16.20;99.90
47600;DHT22;33323;52.124;6.018;2023-07-31T04:43:27;16.20;99.90
47600;DHT22;33323;52.124;6.018;2023-07-31T04:45:54;16.20;99.90
47600;DHT22;33323;52.124;6.018;2023-07-31T04:48:21;16.20;99.90
47600;DHT22;33323;52.124;6.018;2023-07-31T04:50:48;16.20;99.90
47600;DHT22;33323;52.124;6.018;2023-07-31T04:53:16;16.20;99.90
47600;DHT22;33323;52.124;6.018;2023-07-31T04:55:43;16.20;99.90
47600;DHT22;33323;52.124;6.018;2023-07-31T04:58:10;16.10;99.90
47600;DHT22;33323;52.124;6.018;2023-07-31T05:00:37;16.20;99.90
47600;DHT22;33323;52.124;6.018;2023-07-31T05:03:04;16.20;99.90
47600;DHT22;33323;52.124;6.018;2023-07-31T05:05:31;16.20;99.90
47600;DHT22;33323;52.124;6.018;2023-07-31T05:07:58;16.10;99.90
47600;DHT22;33323;52.124;6.018;2023-07-31T05:10:27;16.20;99.90
47600;DHT22;33323;52.124;6.018;2023-07-31T05:12:54;16.20;99.90
47600;DHT22;33323;52.124;6.018;2023-07-31T05:15:21;16.20;99.90
47600;DHT22;33323;52.124;6.018;2023-07-31T05:17:48;16.20;99.90
47600;DHT22;33323;52.124;6.018;2023-07-31T05:20:15;16.20;99.90
47600;DHT22;33323;52.124;6.018;2023-07-31T05:22:42;16.20;99.90
47600;DHT22;33323;52.124;6.018;2023-07-31T05:25:09;16.20;99.90
47600;DHT22;33323;52.124;6.018;2023-07-31T05:27:36;16.20;99.90
47600;DHT22;33323;52.124;6.018;2023-07-31T05:30:04;16.30;99.90
47600;DHT22;33323;52.124;6.018;2023-07-31T05:32:32;16.20;99.90
47600;DHT22;33323;52.124;6.018;2023-07-31T05:35:00;16.30;99.90
47600;DHT22;33323;52.124;6.018;2023-07-31T05:37:27;16.20;99.90
47600;DHT22;33323;52.124;6.018;2023-07-31T05:39:54;16.10;99.90
47600;DHT22;33323;52.124;6.018;2023-07-31T05:42:21;16.20;99.90
47600;DHT22;33323;52.124;6.018;2023-07-31T05:44:48;16.10;99.90
47600;DHT22;33323;52.124;6.018;2023-07-31T05:47:15;16.10;99.90
47600;DHT22;33323;52.124;6.018;2023-07-31T05:49:42;16.00;99.90
47600;DHT22;33323;52.124;6.018;2023-07-31T05:52:09;16.00;99.90
47600;DHT22;33323;52.124;6.018;2023-07-31T05:54:36;16.00;99.90
47600;DHT22;33323;52.124;6.018;2023-07-31T05:57:03;16.00;99.90
47600;DHT22;33323;52.124;6.018;2023-07-31T05:59:31;16.00;99.90
47600;DHT22;33323;52.124;6.018;2023-07-31T06:01:59;16.00;99.90
47600;DHT22;33323;52.124;6.018;2023-07-31T06:04:26;16.00;99.90
47600;DHT22;33323;52.124;6.018;2023-07-31T06:06:54;16.00;99.90
47600;DHT22;33323;52.124;6.018;2023-07-31T06:09:21;16.00;99.90
47600;DHT22;33323;52.124;6.018;2023-07-31T06:11:48;16.00;99.90
47600;DHT22;33323;52.124;6.018;2023-07-31T06:14:15;16.00;99.90
47600;DHT22;33323;52.124;6.018;2023-07-31T06:16:43;16.00;99.90
47600;DHT22;33323;52.124;6.018;2023-07-31T06:19:11;16.10;99.90
47600;DHT22;33323;52.124;6.018;2023-07-31T06:21:38;16.10;99.90
47600;DHT22;33323;52.124;6.018;2023-07-31T06:24:06;16.10;99.90
47600;DHT22;33323;52.124;6.018;2023-07-31T06:26:33;16.10;99.90
47600;DHT22;33323;52.124;6.018;2023-07-31T06:29:00;16.10;99.90
47600;DHT22;33323;52.124;6.018;2023-07-31T06:31:27;16.10;99.90
47600;DHT22;33323;52.124;6.018;2023-07-31T06:33:54;16.20;99.90
47600;DHT22;33323;52.124;6.018;2023-07-31T06:36:21;16.20;99.90
47600;DHT22;33323;52.124;6.018;2023-07-31T06:38:49;16.30;99.90
47600;DHT22;33323;52.124;6.018;2023-07-31T06:41:16;16.30;99.90
47600;DHT22;33323;52.124;6.018;2023-07-31T06:43:43;16.40;99.90
47600;DHT22;33323;52.124;6.018;2023-07-31T06:46:10;16.40;99.90
47600;DHT22;33323;52.124;6.018;2023-07-31T06:48:37;16.50;99.90
47600;DHT22;33323;52.124;6.018;2023-07-31T06:51:04;16.50;99.90
47600;DHT22;33323;52.124;6.018;2023-07-31T06:53:32;16.50;99.90
47600;DHT22;33323;52.124;6.018;2023-07-31T06:55:59;16.50;99.90
47600;DHT22;33323;52.124;6.018;2023-07-31T06:58:26;16.50;99.90
47600;DHT22;33323;52.124;6.018;2023-07-31T07:00:53;16.50;99.90
47600;DHT22;33323;52.124;6.018;2023-07-31T07:03:20;16.50;99.90
47600;DHT22;33323;52.124;6.018;2023-07-31T07:05:47;16.60;99.90
47600;DHT22;33323;52.124;6.018;2023-07-31T07:08:14;16.60;99.90
47600;DHT22;33323;52.124;6.018;2023-07-31T07:10:41;16.60;99.90
47600;DHT22;33323;52.124;6.018;2023-07-31T07:13:08;16.60;99.90
47600;DHT22;33323;52.124;6.018;2023-07-31T07:15:36;16.60;99.90
47600;DHT22;33323;52.124;6.018;2023-07-31T07:18:03;16.70;99.90
47600;DHT22;33323;52.124;6.018;2023-07-31T07:20:30;16.70;99.90
47600;DHT22;33323;52.124;6.018;2023-07-31T07:22:57;16.70;99.90
47600;DHT22;33323;52.124;6.018;2023-07-31T07:25:24;16.70;99.90
47600;DHT22;33323;52.124;6.018;2023-07-31T07:27:51;16.70;99.90
47600;DHT22;33323;52.124;6.018;2023-07-31T07:30:18;16.70;99.90
47600;DHT22;33323;52.124;6.018;2023-07-31T07:32:46;16.80;99.90
47600;DHT22;33323;52.124;6.018;2023-07-31T07:35:14;16.90;99.90
47600;DHT22;33323;52.124;6.018;2023-07-31T07:37:41;17.00;99.90
47600;DHT22;33323;52.124;6.018;2023-07-31T07:40:09;17.00;99.90
47600;DHT22;33323;52.124;6.018;2023-07-31T07:42:36;17.10;99.90
47600;DHT22;33323;52.124;6.018;2023-07-31T07:45:04;17.00;99.90
47600;DHT22;33323;52.124;6.018;2023-07-31T07:47:32;17.00;99.90
47600;DHT22;33323;52.124;6.018;2023-07-31T07:49:59;17.00;99.90
47600;DHT22;33323;52.124;6.018;2023-07-31T07:52:27;17.10;99.90
47600;DHT22;33323;52.124;6.018;2023-07-31T07:54:55;17.10;99.90
47600;DHT22;33323;52.124;6.018;2023-07-31T07:57:22;17.00;99.90
47600;DHT22;33323;52.124;6.018;2023-07-31T07:59:50;17.00;99.90
47600;DHT22;33323;52.124;6.018;2023-07-31T08:02:17;17.00;99.90
47600;DHT22;33323;52.124;6.018;2023-07-31T08:04:44;17.00;99.90
47600;DHT22;33323;52.124;6.018;2023-07-31T08:07:12;17.00;99.90
47600;DHT22;33323;52.124;6.018;2023-07-31T08:09:40;17.10;99.90
47600;DHT22;33323;52.124;6.018;2023-07-31T08:12:08;17.10;99.90
47600;DHT22;33323;52.124;6.018;2023-07-31T08:14:35;17.10;99.90
47600;DHT22;33323;52.124;6.018;2023-07-31T08:17:03;17.10;99.90
47600;DHT22;33323;52.124;6.018;2023-07-31T08:19:30;17.10;99.90
47600;DHT22;33323;52.124;6.018;2023-07-31T08:21:57;17.10;99.90
47600;DHT22;33323;52.124;6.018;2023-07-31T08:24:25;17.10;99.90
47600;DHT22;33323;52.124;6.018;2023-07-31T08:26:52;17.20;99.90
47600;DHT22;33323;52.124;6.018;2023-07-31T08:29:20;17.20;99.90
47600;DHT22;33323;52.124;6.018;2023-07-31T08:31:47;17.20;99.90
47600;DHT22;33323;52.124;6.018;2023-07-31T08:34:14;17.20;99.90
47600;DHT22;33323;52.124;6.018;2023-07-31T08:36:42;17.20;99.90
47600;DHT22;33323;52.124;6.018;2023-07-31T08:39:10;17.20;99.90
47600;DHT22;33323;52.124;6.018;2023-07-31T08:41:38;17.30;99.90
47600;DHT22;33323;52.124;6.018;2023-07-31T08:44:10;17.30;99.90
47600;DHT22;33323;52.124;6.018;2023-07-31T08:46:38;17.30;99.90
47600;DHT22;33323;52.124;6.018;2023-07-31T08:49:07;17.30;99.90
47600;DHT22;33323;52.124;6.018;2023-07-31T08:51:35;17.30;99.90
47600;DHT22;33323;52.124;6.018;2023-07-31T08:54:03;17.30;99.90
47600;DHT22;33323;52.124;6.018;2023-07-31T08:56:33;17.40;99.90
47600;DHT22;33323;52.124;6.018;2023-07-31T08:59:02;17.50;99.90
47600;DHT22;33323;52.124;6.018;2023-07-31T09:01:37;17.50;99.90
47600;DHT22;33323;52.124;6.018;2023-07-31T09:04:09;17.60;99.90
47600;DHT22;33323;52.124;6.018;2023-07-31T09:06:38;17.70;99.90
47600;DHT22;33323;52.124;6.018;2023-07-31T09:09:06;17.80;99.90
47600;DHT22;33323;52.124;6.018;2023-07-31T09:11:33;17.70;99.90
47600;DHT22;33323;52.124;6.018;2023-07-31T09:14:01;17.70;99.90
47600;DHT22;33323;52.124;6.018;2023-07-31T09:16:35;17.70;99.90
47600;DHT22;33323;52.124;6.018;2023-07-31T09:19:04;17.80;99.90
47600;DHT22;33323;52.124;6.018;2023-07-31T09:21:32;17.70;99.90
47600;DHT22;33323;52.124;6.018;2023-07-31T09:23:59;17.70;99.90
47600;DHT22;33323;52.124;6.018;2023-07-31T09:26:34;17.70;99.90
47600;DHT22;33323;52.124;6.018;2023-07-31T09:29:07;17.70;99.90
47600;DHT22;33323;52.124;6.018;2023-07-31T09:31:45;17.60;99.90
47600;DHT22;33323;52.124;6.018;2023-07-31T09:34:13;17.70;99.90
47600;DHT22;33323;52.124;6.018;2023-07-31T09:36:44;17.70;99.90
47600;DHT22;33323;52.124;6.018;2023-07-31T09:39:17;17.80;99.90
47600;DHT22;33323;52.124;6.018;2023-07-31T09:41:56;17.80;99.90
47600;DHT22;33323;52.124;6.018;2023-07-31T09:44:40;17.80;99.90
47600;DHT22;33323;52.124;6.018;2023-07-31T09:47:23;17.70;99.90
47600;DHT22;33323;52.124;6.018;2023-07-31T09:49:52;17.70;99.90
47600;DHT22;33323;52.124;6.018;2023-07-31T09:52:20;17.70;99.90
47600;DHT22;33323;52.124;6.018;2023-07-31T09:54:47;17.70;99.90
47600;DHT22;33323;52.124;6.018;2023-07-31T09:57:17;17.60;99.90
47600;DHT22;33323;52.124;6.018;2023-07-31T09:59:46;17.70;99.90
47600;DHT22;33323;52.124;6.018;2023-07-31T10:02:21;17.70;99.90
47600;DHT22;33323;52.124;6.018;2023-07-31T10:04:50;17.70;99.90
47600;DHT22;33323;52.124;6.018;2023-07-31T10:07:18;17.70;99.90
47600;DHT22;33323;52.124;6.018;2023-07-31T10:09:47;17.70;99.90
47600;DHT22;33323;52.124;6.018;2023-07-31T10:12:17;17.70;99.90
47600;DHT22;33323;52.124;6.018;2023-07-31T10:14:46;17.70;99.90
47600;DHT22;33323;52.124;6.018;2023-07-31T10:17:14;17.80;99.90
47600;DHT22;33323;52.124;6.018;2023-07-31T10:19:42;17.80;99.90
47600;DHT22;33323;52.124;6.018;2023-07-31T10:22:11;17.80;99.90
47600;DHT22;33323;52.124;6.018;2023-07-31T10:24:40;17.90;99.90
47600;DHT22;33323;52.124;6.018;2023-07-31T10:27:10;17.90;99.90
47600;DHT22;33323;52.124;6.018;2023-07-31T10:29:38;17.90;99.90
47600;DHT22;33323;52.124;6.018;2023-07-31T10:32:08;18.00;99.90
47600;DHT22;33323;52.124;6.018;2023-07-31T10:34:39;17.90;99.90
47600;DHT22;33323;52.124;6.018;2023-07-31T10:37:28;17.90;99.90
47600;DHT22;33323;52.124;6.018;2023-07-31T10:42:38;18.00;99.90
47600;DHT22;33323;52.124;6.018;2023-07-31T10:45:11;18.00;99.90
47600;DHT22;33323;52.124;6.018;2023-07-31T10:47:46;18.10;99.90
47600;DHT22;33323;52.124;6.018;2023-07-31T10:50:20;18.20;99.90
47600;DHT22;33323;52.124;6.018;2023-07-31T10:52:50;18.30;99.90
47600;DHT22;33323;52.124;6.018;2023-07-31T10:55:28;18.30;99.90
47600;DHT22;33323;52.124;6.018;2023-07-31T10:58:10;18.30;99.90
47600;DHT22;33323;52.124;6.018;2023-07-31T11:00:40;18.30;99.90
47600;DHT22;33323;52.124;6.018;2023-07-31T11:03:10;18.30;99.90
47600;DHT22;33323;52.124;6.018;2023-07-31T11:08:17;18.40;99.90
47600;DHT22;33323;52.124;6.018;2023-07-31T11:11:04;18.40;99.90
47600;DHT22;33323;52.124;6.018;2023-07-31T11:13:39;18.60;99.90
47600;DHT22;33323;52.124;6.018;2023-07-31T11:16:08;18.70;99.90
47600;DHT22;33323;52.124;6.018;2023-07-31T11:18:39;18.90;99.90
47600;DHT22;33323;52.124;6.018;2023-07-31T11:21:11;19.00;99.90
47600;DHT22;33323;52.124;6.018;2023-07-31T11:23:39;19.00;99.90
47600;DHT22;33323;52.124;6.018;2023-07-31T11:26:07;19.10;99.90
47600;DHT22;33323;52.124;6.018;2023-07-31T11:28:35;19.00;99.90
47600;DHT22;33323;52.124;6.018;2023-07-31T11:31:03;18.90;99.90
47600;DHT22;33323;52.124;6.018;2023-07-31T11:33:30;18.80;99.90
47600;DHT22;33323;52.124;6.018;2023-07-31T11:35:58;18.80;99.90
47600;DHT22;33323;52.124;6.018;2023-07-31T11:40:58;18.70;99.90
47600;DHT22;33323;52.124;6.018;2023-07-31T11:43:26;18.90;99.90
47600;DHT22;33323;52.124;6.018;2023-07-31T11:45:58;18.90;99.90
47600;DHT22;33323;52.124;6.018;2023-07-31T11:48:34;19.00;99.90
47600;DHT22;33323;52.124;6.018;2023-07-31T11:51:08;18.90;99.90
47600;DHT22;33323;52.124;6.018;2023-07-31T11:53:52;19.00;99.90
47600;DHT22;33323;52.124;6.018;2023-07-31T11:56:23;19.00;99.90
47600;DHT22;33323;52.124;6.018;2023-07-31T11:58:59;18.90;99.90
47600;DHT22;33323;52.124;6.018;2023-07-31T12:01:29;18.80;99.90
47600;DHT22;33323;52.124;6.018;2023-07-31T12:03:56;18.70;99.90
47600;DHT22;33323;52.124;6.018;2023-07-31T12:06:37;18.70;99.90
47600;DHT22;33323;52.124;6.018;2023-07-31T12:09:05;18.70;99.90
47600;DHT22;33323;52.124;6.018;2023-07-31T12:11:43;18.70;99.90
47600;DHT22;33323;52.124;6.018;2023-07-31T12:14:25;18.60;99.90
47600;DHT22;33323;52.124;6.018;2023-07-31T12:16:59;18.50;99.90
47600;DHT22;33323;52.124;6.018;2023-07-31T12:19:28;18.60;99.90
47600;DHT22;33323;52.124;6.018;2023-07-31T12:22:01;18.70;99.90
47600;DHT22;33323;52.124;6.018;2023-07-31T12:24:29;18.70;99.90
47600;DHT22;33323;52.124;6.018;2023-07-31T12:26:56;18.70;99.90
47600;DHT22;33323;52.124;6.018;2023-07-31T12:29:23;18.70;99.90
47600;DHT22;33323;52.124;6.018;2023-07-31T12:31:50;18.70;99.90
47600;DHT22;33323;52.124;6.018;2023-07-31T12:34:19;18.70;99.90
47600;DHT22;33323;52.124;6.018;2023-07-31T12:36:53;18.70;99.90
47600;DHT22;33323;52.124;6.018;2023-07-31T12:39:20;18.60;99.90
47600;DHT22;33323;52.124;6.018;2023-07-31T12:41:48;18.60;99.90
47600;DHT22;33323;52.124;6.018;2023-07-31T12:44:15;18.70;99.90
47600;DHT22;33323;52.124;6.018;2023-07-31T12:46:42;18.70;99.90
47600;DHT22;33323;52.124;6.018;2023-07-31T12:49:10;18.80;99.90
47600;DHT22;33323;52.124;6.018;2023-07-31T12:51:37;18.80;99.90
47600;DHT22;33323;52.124;6.018;2023-07-31T12:54:04;18.70;99.90
47600;DHT22;33323;52.124;6.018;2023-07-31T12:56:33;18.90;99.90
47600;DHT22;33323;52.124;6.018;2023-07-31T12:59:00;18.90;99.90
47600;DHT22;33323;52.124;6.018;2023-07-31T13:01:27;18.80;99.90
47600;DHT22;33323;52.124;6.018;2023-07-31T13:03:54;18.80;99.90
47600;DHT22;33323;52.124;6.018;2023-07-31T13:06:22;18.70;99.90
47600;DHT22;33323;52.124;6.018;2023-07-31T13:08:49;18.60;99.90
47600;DHT22;33323;52.124;6.018;2023-07-31T13:11:16;18.60;99.90
47600;DHT22;33323;52.124;6.018;2023-07-31T13:13:44;18.60;99.90
47600;DHT22;33323;52.124;6.018;2023-07-31T13:16:11;18.70;99.90
47600;DHT22;33323;52.124;6.018;2023-07-31T13:18:38;18.80;99.90
47600;DHT22;33323;52.124;6.018;2023-07-31T13:21:06;18.80;99.90
47600;DHT22;33323;52.124;6.018;2023-07-31T13:23:33;18.80;99.90
47600;DHT22;33323;52.124;6.018;2023-07-31T13:26:00;18.90;99.90
47600;DHT22;33323;52.124;6.018;2023-07-31T13:28:29;18.80;99.90
47600;DHT22;33323;52.124;6.018;2023-07-31T13:30:56;18.90;99.90
47600;DHT22;33323;52.124;6.018;2023-07-31T13:33:24;18.80;99.90
47600;DHT22;33323;52.124;6.018;2023-07-31T13:36:03;18.80;99.90
47600;DHT22;33323;52.124;6.018;2023-07-31T13:38:30;18.70;99.90
47600;DHT22;33323;52.124;6.018;2023-07-31T13:40:57;18.70;99.90
47600;DHT22;33323;52.124;6.018;2023-07-31T13:43:25;18.70;99.90
47600;DHT22;33323;52.124;6.018;2023-07-31T13:45:53;18.70;99.90
47600;DHT22;33323;52.124;6.018;2023-07-31T13:48:20;18.80;99.90
47600;DHT22;33323;52.124;6.018;2023-07-31T13:50:47;18.80;99.90
47600;DHT22;33323;52.124;6.018;2023-07-31T13:53:14;18.90;99.90
47600;DHT22;33323;52.124;6.018;2023-07-31T13:55:42;19.00;99.90
47600;DHT22;33323;52.124;6.018;2023-07-31T13:58:12;19.20;99.90
47600;DHT22;33323;52.124;6.018;2023-07-31T14:00:39;19.10;99.90
47600;DHT22;33323;52.124;6.018;2023-07-31T14:03:07;19.00;99.90
47600;DHT22;33323;52.124;6.018;2023-07-31T14:05:34;18.90;99.90
47600;DHT22;33323;52.124;6.018;2023-07-31T14:08:02;18.90;99.90
47600;DHT22;33323;52.124;6.018;2023-07-31T14:10:29;18.90;99.90
47600;DHT22;33323;52.124;6.018;2023-07-31T14:12:56;18.90;99.90
47600;DHT22;33323;52.124;6.018;2023-07-31T14:15:24;18.90;99.90
47600;DHT22;33323;52.124;6.018;2023-07-31T14:17:51;18.80;99.90
47600;DHT22;33323;52.124;6.018;2023-07-31T14:20:18;18.80;99.90
47600;DHT22;33323;52.124;6.018;2023-07-31T14:22:46;18.80;99.90
47600;DHT22;33323;52.124;6.018;2023-07-31T14:25:14;18.80;99.90
47600;DHT22;33323;52.124;6.018;2023-07-31T14:27:41;18.70;99.90
47600;DHT22;33323;52.124;6.018;2023-07-31T14:30:08;18.70;99.90
47600;DHT22;33323;52.124;6.018;2023-07-31T14:32:36;18.70;99.90
47600;DHT22;33323;52.124;6.018;2023-07-31T14:35:04;18.70;99.90
47600;DHT22;33323;52.124;6.018;2023-07-31T14:37:42;18.60;99.90
47600;DHT22;33323;52.124;6.018;2023-07-31T14:40:12;18.60;99.90
47600;DHT22;33323;52.124;6.018;2023-07-31T14:42:40;18.60;99.90
47600;DHT22;33323;52.124;6.018;2023-07-31T14:45:08;18.60;99.90
47600;DHT22;33323;52.124;6.018;2023-07-31T14:47:37;18.60;99.90
47600;DHT22;33323;52.124;6.018;2023-07-31T14:50:05;18.60;99.90
47600;DHT22;33323;52.124;6.018;2023-07-31T14:52:33;18.60;99.90
47600;DHT22;33323;52.124;6.018;2023-07-31T14:55:00;18.60;99.90
47600;DHT22;33323;52.124;6.018;2023-07-31T14:57:28;18.60;99.90
47600;DHT22;33323;52.124;6.018;2023-07-31T14:59:55;18.60;99.90
47600;DHT22;33323;52.124;6.018;2023-07-31T15:02:22;18.60;99.90
47600;DHT22;33323;52.124;6.018;2023-07-31T15:04:50;18.60;99.90
47600;DHT22;33323;52.124;6.018;2023-07-31T15:07:17;18.50;99.90
47600;DHT22;33323;52.124;6.018;2023-07-31T15:09:44;18.60;99.90
47600;DHT22;33323;52.124;6.018;2023-07-31T15:12:11;18.70;99.90
47600;DHT22;33323;52.124;6.018;2023-07-31T15:14:39;18.70;99.90
47600;DHT22;33323;52.124;6.018;2023-07-31T15:17:06;18.70;99.90
47600;DHT22;33323;52.124;6.018;2023-07-31T15:19:33;18.60;99.90
47600;DHT22;33323;52.124;6.018;2023-07-31T15:22:03;18.60;99.90
47600;DHT22;33323;52.124;6.018;2023-07-31T15:24:31;18.60;99.90
47600;DHT22;33323;52.124;6.018;2023-07-31T15:26:59;18.50;99.90
47600;DHT22;33323;52.124;6.018;2023-07-31T15:29:29;18.60;99.90
47600;DHT22;33323;52.124;6.018;2023-07-31T15:31:57;18.60;99.90
47600;DHT22;33323;52.124;6.018;2023-07-31T15:34:24;18.60;99.90
47600;DHT22;33323;52.124;6.018;2023-07-31T15:36:52;18.60;99.90
47600;DHT22;33323;52.124;6.018;2023-07-31T15:39:19;18.60;99.90
47600;DHT22;33323;52.124;6.018;2023-07-31T15:41:47;18.60;99.90
47600;DHT22;33323;52.124;6.018;2023-07-31T15:44:14;18.50;99.90
47600;DHT22;33323;52.124;6.018;2023-07-31T15:46:41;18.50;99.90
47600;DHT22;33323;52.124;6.018;2023-07-31T15:49:09;18.40;99.90
47600;DHT22;33323;52.124;6.018;2023-07-31T15:51:37;18.40;99.90